Time,TemperatureF,DewpointF,PressureIn,WindDirection,WindDirectionDegrees,WindSpeedMPH,WindSpeedGustMPH,Humidity,HourlyPrecipIn,Conditions,Clouds,dailyrainin,SolarRadiationWatts/m^2,SoftwareType,DateUTC
2013-05-09 00:01:00,65.0,65.0,-100.00,West,271,2.0,4.0,99,0.00,,,0.04,0.000000,,2013-05-09 10:01:00,
2013-05-09 00:33:00,65.0,65.0,-100.00,West,271,2.0,4.0,99,0.00,,,0.04,0.000000,,2013-05-09 10:33:00,
2013-05-09 00:42:00,65.0,65.0,-100.00,West,271,2.0,4.0,99,0.00,,,0.04,0.000000,,2013-05-09 10:42:00,
2013-05-09 00:52:00,65.0,65.0,-100.00,West,271,2.0,4.0,99,0.00,,,0.04,0.000000,,2013-05-09 10:52:00,
2013-05-09 01:01:00,64.0,63.0,-100.00,WNW,297,0.0,5.0,97,0.00,,,0.04,0.000000,,2013-05-09 11:01:00,
2013-05-09 01:32:00,64.0,63.0,-100.00,WNW,297,0.0,5.0,97,0.00,,,0.04,0.000000,,2013-05-09 11:32:00,
2013-05-09 01:42:00,64.0,63.0,-100.00,WNW,297,0.0,5.0,97,0.00,,,0.04,0.000000,,2013-05-09 11:42:00,
2013-05-09 01:52:00,64.0,63.0,-100.00,WNW,297,0.0,5.0,97,0.00,,,0.04,0.000000,,2013-05-09 11:52:00,
2013-05-09 02:01:00,65.0,64.0,-100.00,WNW,288,1.0,4.0,95,0.00,,,0.04,0.000000,,2013-05-09 12:01:00,
2013-05-09 02:32:00,65.0,64.0,-100.00,WNW,288,1.0,4.0,95,0.00,,,0.04,0.000000,,2013-05-09 12:32:00,
2013-05-09 02:42:00,65.0,64.0,-100.00,WNW,288,1.0,4.0,95,0.00,,,0.04,0.000000,,2013-05-09 12:42:00,
2013-05-09 02:52:00,65.0,64.0,-100.00,WNW,288,1.0,4.0,95,0.00,,,0.04,0.000000,,2013-05-09 12:52:00,
2013-05-09 03:01:00,65.0,64.0,-100.00,SW,217,2.0,5.0,95,0.00,,,0.04,0.000000,,2013-05-09 13:01:00,
2013-05-09 03:32:00,65.0,64.0,-100.00,SW,217,2.0,5.0,95,0.00,,,0.04,0.000000,,2013-05-09 13:32:00,
2013-05-09 03:42:00,65.0,64.0,-100.00,SW,217,2.0,5.0,95,0.00,,,0.04,0.000000,,2013-05-09 13:42:00,
2013-05-09 03:52:00,65.0,64.0,-100.00,SW,217,2.0,5.0,95,0.00,,,0.04,0.000000,,2013-05-09 13:52:00,
2013-05-09 04:01:00,64.0,61.0,-100.00,NW,306,3.0,6.0,90,0.00,,,0.04,0.000000,,2013-05-09 14:01:00,
2013-05-09 04:32:00,64.0,61.0,-100.00,NW,306,3.0,6.0,90,0.00,,,0.04,0.000000,,2013-05-09 14:32:00,
2013-05-09 04:42:00,64.0,61.0,-100.00,NW,306,3.0,6.0,90,0.00,,,0.04,0.000000,,2013-05-09 14:42:00,
2013-05-09 04:52:00,64.0,61.0,-100.00,NW,306,3.0,6.0,90,0.00,,,0.04,0.000000,,2013-05-09 14:52:00,
2013-05-09 05:01:00,65.0,63.0,-100.00,WNW,290,2.0,8.0,93,0.01,,,0.05,0.000000,,2013-05-09 15:01:00,
2013-05-09 05:33:00,65.0,63.0,-100.00,WNW,290,2.0,8.0,93,0.01,,,0.05,0.000000,,2013-05-09 15:33:00,
2013-05-09 05:43:00,65.0,63.0,-100.00,WNW,290,2.0,8.0,93,0.01,,,0.05,0.000000,,2013-05-09 15:43:00,
2013-05-09 05:53:00,65.0,63.0,-100.00,WNW,290,2.0,8.0,93,0.01,,,0.05,0.000000,,2013-05-09 15:53:00,
2013-05-09 06:01:00,65.0,63.0,-100.00,NW,310,3.0,6.0,93,0.00,,,0.05,1.000000,,2013-05-09 16:01:00,
2013-05-09 06:33:00,65.0,63.0,-100.00,NW,310,3.0,6.0,93,0.00,,,0.05,1.000000,,2013-05-09 16:33:00,
2013-05-09 06:42:00,65.0,63.0,-100.00,NW,310,3.0,6.0,93,0.00,,,0.05,1.000000,,2013-05-09 16:42:00,
2013-05-09 06:53:00,65.0,63.0,-100.00,NW,310,3.0,6.0,93,0.00,,,0.05,1.000000,,2013-05-09 16:53:00,
2013-05-09 07:01:00,66.0,65.0,-100.00,SE,140,3.0,5.0,96,0.00,,,0.05,31.000000,,2013-05-09 17:01:00,
2013-05-09 07:32:00,66.0,65.0,-100.00,SE,140,3.0,5.0,96,0.00,,,0.05,31.000000,,2013-05-09 17:32:00,
2013-05-09 07:42:00,66.0,65.0,-100.00,SE,140,3.0,5.0,96,0.00,,,0.05,31.000000,,2013-05-09 17:42:00,
2013-05-09 07:55:00,66.0,65.0,-100.00,SE,140,3.0,5.0,96,0.00,,,0.05,31.000000,,2013-05-09 17:55:00,
2013-05-09 08:01:00,67.0,65.0,-100.00,WNW,296,3.0,5.0,93,0.00,,,0.05,117.000000,,2013-05-09 18:01:00,
2013-05-09 08:22:00,67.0,65.0,-100.00,WNW,296,3.0,5.0,93,0.00,,,0.05,117.000000,,2013-05-09 18:22:00,
2013-05-09 08:32:00,67.0,65.0,-100.00,WNW,296,3.0,5.0,93,0.00,,,0.05,117.000000,,2013-05-09 18:32:00,
2013-05-09 08:42:00,67.0,65.0,-100.00,WNW,296,3.0,5.0,93,0.00,,,0.05,117.000000,,2013-05-09 18:42:00,
2013-05-09 08:52:00,67.0,65.0,-100.00,WNW,296,3.0,5.0,93,0.00,,,0.05,117.000000,,2013-05-09 18:52:00,
2013-05-09 09:01:00,68.0,66.0,-100.00,South,175,3.0,7.0,93,0.00,,,0.05,164.000000,,2013-05-09 19:01:00,
2013-05-09 09:32:00,68.0,66.0,-100.00,South,175,3.0,7.0,93,0.00,,,0.05,164.000000,,2013-05-09 19:32:00,
2013-05-09 09:42:00,68.0,66.0,-100.00,South,175,3.0,7.0,93,0.00,,,0.05,164.000000,,2013-05-09 19:42:00,
2013-05-09 09:52:00,68.0,66.0,-100.00,South,175,3.0,7.0,93,0.00,,,0.05,164.000000,,2013-05-09 19:52:00,
2013-05-09 10:01:00,68.0,67.0,-100.00,South,178,3.0,7.0,96,0.05,,,0.10,271.000000,,2013-05-09 20:01:00,
2013-05-09 10:32:00,68.0,67.0,-100.00,South,178,3.0,7.0,96,0.05,,,0.10,271.000000,,2013-05-09 20:32:00,
2013-05-09 10:42:00,68.0,67.0,-100.00,South,178,3.0,7.0,96,0.05,,,0.10,271.000000,,2013-05-09 20:42:00,
2013-05-09 10:52:00,68.0,67.0,-100.00,South,178,3.0,7.0,96,0.05,,,0.10,271.000000,,2013-05-09 20:52:00,
2013-05-09 11:01:00,68.0,67.0,-100.00,SE,144,6.0,10.0,98,0.03,,,0.13,215.000000,,2013-05-09 21:01:00,
2013-05-09 11:33:00,68.0,67.0,-100.00,SE,144,6.0,10.0,98,0.03,,,0.13,215.000000,,2013-05-09 21:33:00,
2013-05-09 11:43:00,68.0,67.0,-100.00,SE,144,6.0,10.0,98,0.03,,,0.13,215.000000,,2013-05-09 21:43:00,
2013-05-09 11:53:00,68.0,67.0,-100.00,SE,144,6.0,10.0,98,0.03,,,0.13,215.000000,,2013-05-09 21:53:00,
2013-05-09 12:01:00,67.0,66.0,-100.00,SSE,157,8.0,13.0,98,0.01,,,0.14,252.000000,,2013-05-09 22:01:00,
2013-05-09 12:33:00,67.0,66.0,-100.00,SSE,157,8.0,13.0,98,0.01,,,0.14,252.000000,,2013-05-09 22:33:00,
2013-05-09 12:42:00,67.0,66.0,-100.00,SSE,157,8.0,13.0,98,0.01,,,0.14,252.000000,,2013-05-09 22:42:00,
2013-05-09 12:52:00,67.0,66.0,-100.00,SSE,157,8.0,13.0,98,0.01,,,0.14,252.000000,,2013-05-09 22:52:00,
2013-05-09 13:01:00,68.0,66.0,-100.00,SSE,159,9.0,13.0,94,0.00,,,0.14,242.000000,,2013-05-09 23:01:00,
2013-05-09 13:32:00,68.0,66.0,-100.00,SSE,159,9.0,13.0,94,0.00,,,0.14,242.000000,,2013-05-09 23:32:00,
2013-05-09 13:42:00,68.0,66.0,-100.00,SSE,159,9.0,13.0,94,0.00,,,0.14,242.000000,,2013-05-09 23:42:00,
2013-05-09 13:52:00,68.0,66.0,-100.00,SSE,159,9.0,13.0,94,0.00,,,0.14,242.000000,,2013-05-09 23:52:00,
2013-05-09 14:01:00,70.0,66.0,-100.00,South,181,6.0,12.0,88,0.00,,,0.14,388.000000,,2013-05-10 00:01:00,
2013-05-09 14:22:00,70.0,66.0,-100.00,South,181,6.0,12.0,88,0.00,,,0.14,388.000000,,2013-05-10 00:22:00,
2013-05-09 14:32:00,70.0,66.0,-100.00,South,181,6.0,12.0,88,0.00,,,0.14,388.000000,,2013-05-10 00:32:00,
2013-05-09 14:42:00,70.0,66.0,-100.00,South,181,6.0,12.0,88,0.00,,,0.14,388.000000,,2013-05-10 00:42:00,
2013-05-09 14:52:00,70.0,66.0,-100.00,South,181,6.0,12.0,88,0.00,,,0.14,388.000000,,2013-05-10 00:52:00,
2013-05-09 15:01:00,68.0,65.0,-100.00,SSE,168,8.0,13.0,90,0.00,,,0.14,292.000000,,2013-05-10 01:01:00,
2013-05-09 15:22:00,68.0,65.0,-100.00,SSE,168,8.0,13.0,90,0.00,,,0.14,292.000000,,2013-05-10 01:22:00,
2013-05-09 15:32:00,68.0,65.0,-100.00,SSE,168,8.0,13.0,90,0.00,,,0.14,292.000000,,2013-05-10 01:32:00,
2013-05-09 15:42:00,68.0,65.0,-100.00,SSE,168,8.0,13.0,90,0.00,,,0.14,292.000000,,2013-05-10 01:42:00,
2013-05-09 15:52:00,68.0,65.0,-100.00,SSE,168,8.0,13.0,90,0.00,,,0.14,292.000000,,2013-05-10 01:52:00,
2013-05-09 16:01:00,67.0,66.0,-100.00,SSE,150,5.0,11.0,96,0.00,,,0.14,59.000000,,2013-05-10 02:01:00,
2013-05-09 16:21:00,67.0,66.0,-100.00,SSE,150,5.0,11.0,96,0.00,,,0.14,59.000000,,2013-05-10 02:21:00,
2013-05-09 16:32:00,67.0,66.0,-100.00,SSE,150,5.0,11.0,96,0.00,,,0.14,59.000000,,2013-05-10 02:32:00,
2013-05-09 16:42:00,67.0,66.0,-100.00,SSE,150,5.0,11.0,96,0.00,,,0.14,59.000000,,2013-05-10 02:42:00,
2013-05-09 16:52:00,67.0,66.0,-100.00,SSE,150,5.0,11.0,96,0.00,,,0.14,59.000000,,2013-05-10 02:52:00,
2013-05-09 17:01:00,66.0,65.0,-100.00,SSE,165,4.0,8.0,98,0.00,,,0.14,72.000000,,2013-05-10 03:01:00,
2013-05-09 17:33:00,66.0,65.0,-100.00,SSE,165,4.0,8.0,98,0.00,,,0.14,72.000000,,2013-05-10 03:33:00,
2013-05-09 17:43:00,66.0,65.0,-100.00,SSE,165,4.0,8.0,98,0.00,,,0.14,72.000000,,2013-05-10 03:43:00,
2013-05-09 17:53:00,66.0,65.0,-100.00,SSE,165,4.0,8.0,98,0.00,,,0.14,72.000000,,2013-05-10 03:53:00,
2013-05-09 18:01:00,66.0,66.0,-100.00,SSE,164,5.0,8.0,99,0.04,,,0.18,35.000000,,2013-05-10 04:01:00,
2013-05-09 18:33:00,66.0,66.0,-100.00,SSE,164,5.0,8.0,99,0.04,,,0.18,35.000000,,2013-05-10 04:33:00,
2013-05-09 18:43:00,66.0,66.0,-100.00,SSE,164,5.0,8.0,99,0.04,,,0.18,35.000000,,2013-05-10 04:43:00,
2013-05-09 18:53:00,66.0,66.0,-100.00,SSE,164,5.0,8.0,99,0.04,,,0.18,35.000000,,2013-05-10 04:53:00,
2013-05-09 19:01:00,65.0,65.0,-100.00,SSW,206,3.0,6.0,99,0.01,,,0.19,6.000000,,2013-05-10 05:01:00,
2013-05-09 19:22:00,65.0,65.0,-100.00,SSW,206,3.0,6.0,99,0.01,,,0.19,6.000000,,2013-05-10 05:22:00,
2013-05-09 19:32:00,65.0,65.0,-100.00,SSW,206,3.0,6.0,99,0.01,,,0.19,6.000000,,2013-05-10 05:32:00,
2013-05-09 19:42:00,65.0,65.0,-100.00,SSW,206,3.0,6.0,99,0.01,,,0.19,6.000000,,2013-05-10 05:42:00,
2013-05-09 19:52:00,65.0,65.0,-100.00,SSW,206,3.0,6.0,99,0.01,,,0.19,6.000000,,2013-05-10 05:52:00,
2013-05-09 20:01:00,65.0,65.0,-100.00,South,178,1.0,2.0,99,0.00,,,0.19,0.000000,,2013-05-10 06:01:00,
2013-05-09 20:32:00,65.0,65.0,-100.00,South,178,1.0,2.0,99,0.00,,,0.19,0.000000,,2013-05-10 06:32:00,
2013-05-09 20:42:00,65.0,65.0,-100.00,South,178,1.0,2.0,99,0.00,,,0.19,0.000000,,2013-05-10 06:42:00,
2013-05-09 20:52:00,65.0,65.0,-100.00,South,178,1.0,2.0,99,0.00,,,0.19,0.000000,,2013-05-10 06:52:00,
2013-05-09 21:01:00,65.0,65.0,-100.00,NNW,338,0.0,4.0,99,0.07,,,0.26,0.000000,,2013-05-10 07:01:00,
2013-05-09 21:22:00,65.0,65.0,-100.00,NNW,338,0.0,4.0,99,0.07,,,0.26,0.000000,,2013-05-10 07:22:00,
2013-05-09 21:32:00,65.0,65.0,-100.00,NNW,338,0.0,4.0,99,0.07,,,0.26,0.000000,,2013-05-10 07:32:00,
2013-05-09 21:42:00,65.0,65.0,-100.00,NNW,338,0.0,4.0,99,0.07,,,0.26,0.000000,,2013-05-10 07:42:00,
2013-05-09 21:52:00,65.0,65.0,-100.00,NNW,338,0.0,4.0,99,0.07,,,0.26,0.000000,,2013-05-10 07:52:00,
2013-05-09 22:01:00,65.0,65.0,-100.00,NW,304,0.0,3.0,99,0.15,,,0.40,0.000000,,2013-05-10 08:01:00,
2013-05-09 22:32:00,65.0,65.0,-100.00,NW,304,0.0,3.0,99,0.15,,,0.40,0.000000,,2013-05-10 08:32:00,
2013-05-09 22:42:00,65.0,65.0,-100.00,NW,304,0.0,3.0,99,0.15,,,0.40,0.000000,,2013-05-10 08:42:00,
2013-05-09 22:52:00,65.0,65.0,-100.00,NW,304,0.0,3.0,99,0.15,,,0.40,0.000000,,2013-05-10 08:52:00,
2013-05-09 23:01:00,65.0,65.0,-100.00,NNW,340,0.0,2.0,99,0.02,,,-99.99,0.000000,,2013-05-10 09:01:00,
2013-05-09 23:33:00,65.0,65.0,-100.00,NNW,340,0.0,2.0,99,0.02,,,-99.99,0.000000,,2013-05-10 09:33:00,
2013-05-09 23:43:00,65.0,65.0,-100.00,NNW,340,0.0,2.0,99,0.02,,,-99.99,0.000000,,2013-05-10 09:43:00,
2013-05-09 23:52:00,65.0,65.0,-100.00,NNW,340,0.0,2.0,99,0.02,,,-99.99,0.000000,,2013-05-10 09:52:00,